Time;durP1;ratioP1;P1;durP2;ratioP2;P2;SDS_P1;SDS_P2;PMS_P1;PMS_P2;Temp;Humidity;BMP_temperature;BMP_pressure;BME280_temperature;BME280_humidity;BME280_pressure;Samples;Min_cycle;Max_cycle;Signal;HPM_P1;HPM_P2
2023/03/27 00:00:55;;;;;;;3.93;1.10;;;;;;;3.91;67.36;100524.53;5003641;28;20243;-80
2023/03/27 00:03:23;;;;;;;2.90;0.90;;;;;;;3.66;67.49;100538.91;5003338;28;20199;-82
2023/03/27 00:05:59;;;;;;;3.40;1.07;;;;;;;3.73;67.87;100522.66;5006798;28;20745;-81
2023/03/27 00:08:25;;;;;;;5.83;0.93;;;;;;;3.88;67.93;100519.34;5025754;28;20202;-81
2023/03/27 00:10:52;;;;;;;3.93;1.00;;;;;;;3.94;66.93;100526.28;5025492;28;20225;-80
2023/03/27 00:13:19;;;;;;;4.63;1.40;;;;;;;3.88;66.55;100540.00;5025581;28;20674;-82
2023/03/27 00:15:45;;;;;;;3.67;1.00;;;;;;;3.76;67.07;100551.06;5026045;28;20676;-82
2023/03/27 00:18:14;;;;;;;6.17;1.10;;;;;;;3.81;66.93;100558.03;5025838;28;20210;-80
2023/03/27 00:20:41;;;;;;;3.80;1.17;;;;;;;3.74;65.82;100564.81;5022402;28;20227;-81
2023/03/27 00:23:07;;;;;;;3.63;1.03;;;;;;;3.84;65.76;100583.84;5024930;28;20214;-80
2023/03/27 00:25:34;;;;;;;1.80;0.70;;;;;;;3.86;65.30;100595.94;5013290;28;20721;-81
2023/03/27 00:28:01;;;;;;;5.50;1.00;;;;;;;3.91;65.27;100608.91;5006334;28;20212;-80
2023/03/27 00:30:29;;;;;;;2.40;0.83;;;;;;;3.57;64.20;100642.94;5008353;28;20203;-81
2023/03/27 00:32:56;;;;;;;4.50;1.10;;;;;;;3.74;65.32;100650.88;5020661;28;20306;-80
2023/03/27 00:35:27;;;;;;;2.43;0.87;;;;;;;3.58;65.46;100670.47;5027026;28;20202;-82
2023/03/27 00:37:54;;;;;;;2.73;0.97;;;;;;;3.83;65.33;100662.19;5026610;28;20210;-81
2023/03/27 00:40:21;;;;;;;2.63;0.97;;;;;;;3.81;63.94;100671.63;5025339;28;20205;-78
2023/03/27 00:42:49;;;;;;;4.73;0.80;;;;;;;3.89;63.63;100690.66;5025798;28;20230;-80
2023/03/27 00:45:17;;;;;;;10.50;1.63;;;;;;;3.72;64.36;100711.09;5011975;28;20220;-82
2023/03/27 00:47:46;;;;;;;3.90;0.90;;;;;;;3.75;63.44;100709.41;5017082;28;20210;-81
2023/03/27 00:50:16;;;;;;;2.47;0.63;;;;;;;3.79;64.30;100728.41;5026850;28;20211;-82
2023/03/27 00:52:48;;;;;;;6.13;1.47;;;;;;;3.64;63.53;100738.50;5023914;28;20729;-79
2023/03/27 00:55:18;;;;;;;4.47;0.77;;;;;;;3.71;63.58;100750.66;5014995;28;20175;-81
2023/03/27 00:57:49;;;;;;;6.03;1.20;;;;;;;3.32;63.81;100780.19;5020102;28;20193;-80
2023/03/27 01:00:16;;;;;;;4.60;1.10;;;;;;;3.24;64.46;100776.63;5027913;28;20183;-81
2023/03/27 01:02:46;;;;;;;3.00;1.00;;;;;;;3.04;65.71;100774.56;5034747;28;20231;-79
2023/03/27 01:05:14;;;;;;;5.47;0.80;;;;;;;2.93;65.94;100758.03;5014714;28;20628;-80
2023/03/27 01:07:41;;;;;;;5.23;1.37;;;;;;;2.98;66.05;100736.66;5006604;28;20275;-81
2023/03/27 01:10:10;;;;;;;3.73;1.13;;;;;;;2.83;66.11;100731.22;5007057;28;20204;-82
2023/03/27 01:12:45;;;;;;;4.10;0.90;;;;;;;3.01;66.19;100711.75;5006363;28;20234;-82
2023/03/27 01:15:24;;;;;;;2.47;0.90;;;;;;;2.90;66.70;100711.59;5011812;28;20212;-81
2023/03/27 01:18:02;;;;;;;2.87;1.13;;;;;;;2.82;66.99;100702.88;5017732;28;20221;-81
2023/03/27 01:21:12;;;;;;;4.43;1.33;;;;;;;2.84;67.30;100684.00;5018381;28;20203;-81
2023/03/27 01:24:08;;;;;;;4.03;0.90;;;;;;;2.83;67.75;100677.09;5019286;28;20200;-81
2023/03/27 01:27:00;;;;;;;2.20;1.10;;;;;;;2.42;68.58;100672.09;5014135;28;20206;-82
2023/03/27 01:29:36;;;;;;;3.70;1.03;;;;;;;2.57;69.01;100646.59;5001915;28;20725;-83
2023/03/27 01:32:26;;;;;;;5.40;1.00;;;;;;;2.45;69.81;100640.38;5008577;28;20661;-82
2023/03/27 01:35:16;;;;;;;3.00;0.70;;;;;;;2.29;70.22;100634.94;5009161;28;20585;-83
2023/03/27 01:38:02;;;;;;;4.33;0.83;;;;;;;2.06;71.52;100613.06;5001981;28;20691;-82
2023/03/27 01:40:36;;;;;;;7.27;1.27;;;;;;;1.77;72.75;100570.50;5011091;28;20218;-82
2023/03/27 01:43:07;;;;;;;3.03;1.00;;;;;;;1.71;73.12;100529.22;5009643;28;20250;-81
2023/03/27 01:45:40;;;;;;;4.13;0.83;;;;;;;1.43;74.62;100507.25;5015169;28;20818;-82
2023/03/27 01:48:11;;;;;;;4.00;1.20;;;;;;;1.22;76.37;100470.81;5029600;28;20207;-82
2023/03/27 01:50:42;;;;;;;4.80;1.00;;;;;;;1.14;76.48;100411.53;5010455;28;20661;-81
2023/03/27 01:53:14;;;;;;;5.43;1.00;;;;;;;1.04;77.53;100373.66;5010510;28;20240;-81
2023/03/27 01:55:48;;;;;;;3.30;1.10;;;;;;;0.95;78.07;100333.22;5011039;28;20204;-81
2023/03/27 01:58:18;;;;;;;5.40;1.00;;;;;;;0.94;78.54;100291.25;5011105;28;20219;-82
2023/03/27 02:00:51;;;;;;;3.47;1.40;;;;;;;0.84;79.36;100265.38;5011396;28;20760;-82
2023/03/27 02:03:21;;;;;;;2.33;0.90;;;;;;;0.83;79.67;100235.38;5023913;28;20207;-81
2023/03/27 02:05:52;;;;;;;5.77;0.90;;;;;;;0.78;80.13;100207.03;5031496;28;20232;-82
2023/03/27 02:08:23;;;;;;;5.37;1.30;;;;;;;0.79;80.30;100199.38;5027600;28;20238;-82
2023/03/27 02:10:55;;;;;;;4.13;0.90;;;;;;;0.82;81.19;100178.00;5027195;28;20221;-81
2023/03/27 02:13:26;;;;;;;5.20;1.40;;;;;;;0.69;81.29;100171.75;5027530;28;20574;-82
2023/03/27 02:15:57;;;;;;;2.67;0.90;;;;;;;0.89;81.13;100150.69;5012786;28;20202;-82
2023/03/27 02:18:30;;;;;;;5.40;1.50;;;;;;;0.87;81.05;100170.34;5019499;28;20208;-80
2023/03/27 02:20:56;;;;;;;4.87;1.57;;;;;;;0.72;81.28;100158.13;5027822;28;20204;-82
2023/03/27 02:23:23;;;;;;;3.87;1.27;;;;;;;0.79;82.00;100140.28;5026431;28;20210;-82
2023/03/27 02:25:53;;;;;;;2.30;1.13;;;;;;;0.70;82.76;100150.38;5010927;28;20223;-82
2023/03/27 02:28:36;;;;;;;6.13;1.17;;;;;;;0.43;83.71;100129.38;5006938;28;20230;-81
2023/03/27 02:31:18;;;;;;;6.03;1.30;;;;;;;0.33;84.55;100107.81;5007279;28;20251;-81
2023/03/27 02:33:58;;;;;;;3.00;0.87;;;;;;;0.31;85.18;100074.41;4987417;28;20213;-80
2023/03/27 02:36:30;;;;;;;3.20;1.00;;;;;;;0.24;85.87;100058.88;4988549;28;20208;-81
2023/03/27 02:39:00;;;;;;;2.37;1.03;;;;;;;0.23;86.17;100031.50;4987973;28;20226;-82
2023/03/27 02:41:33;;;;;;;7.63;2.13;;;;;;;0.19;87.06;100017.75;4986833;28;20233;-81
2023/03/27 02:44:07;;;;;;;8.73;1.20;;;;;;;0.18;86.85;100016.91;4987220;28;20223;-80
2023/03/27 02:46:41;;;;;;;2.90;1.20;;;;;;;0.17;87.35;100012.59;4987446;28;20224;-83
2023/03/27 02:49:13;;;;;;;3.87;1.37;;;;;;;0.11;88.06;100012.50;4997341;28;20208;-82
2023/03/27 02:51:43;;;;;;;2.87;0.93;;;;;;;0.10;87.86;100005.66;5025640;28;20237;-82
2023/03/27 02:54:14;;;;;;;4.23;1.00;;;;;;;0.09;88.07;100010.75;5007554;28;20730;-82
2023/03/27 02:56:46;;;;;;;12.10;1.30;;;;;;;0.04;88.41;100012.38;5007622;28;20237;-82
2023/03/27 02:59:19;;;;;;;8.33;1.47;;;;;;;0.09;88.26;100013.31;5007027;28;20212;-81
2023/03/27 03:01:45;;;;;;;5.70;1.10;;;;;;;0.13;88.19;100015.09;5006990;28;20228;-82
2023/03/27 03:04:16;;;;;;;1.73;1.30;;;;;;;0.20;87.90;100011.81;5007641;28;20218;-82
2023/03/27 03:06:43;;;;;;;2.60;1.20;;;;;;;0.36;86.95;100029.16;5008015;28;20264;-82
2023/03/27 03:09:13;;;;;;;3.50;1.10;;;;;;;0.29;87.86;100032.47;5007154;28;20204;-82
2023/03/27 03:11:47;;;;;;;6.50;1.20;;;;;;;0.26;87.02;100045.25;5006952;28;20263;-82
2023/03/27 03:14:14;;;;;;;10.60;1.37;;;;;;;0.28;86.95;100053.84;5007479;28;20215;-83
2023/03/27 03:16:40;;;;;;;4.00;1.20;;;;;;;0.22;87.39;100066.59;5007260;28;20210;-83
2023/03/27 03:19:07;;;;;;;5.80;1.40;;;;;;;0.14;86.98;100083.53;5007855;28;20198;-82
2023/03/27 03:21:35;;;;;;;6.13;1.17;;;;;;;0.15;86.99;100083.56;5007574;28;20223;-83
2023/03/27 03:24:01;;;;;;;4.93;1.40;;;;;;;0.16;87.44;100090.44;5010482;28;20205;-83
2023/03/27 03:26:28;;;;;;;3.70;0.80;;;;;;;0.16;87.25;100094.72;5011403;28;20221;-81
2023/03/27 03:28:56;;;;;;;6.47;0.90;;;;;;;0.23;87.06;100096.53;5010352;28;20212;-82
2023/03/27 03:31:23;;;;;;;5.23;1.60;;;;;;;0.26;86.52;100106.88;5010496;28;20235;-82
2023/03/27 03:33:49;;;;;;;3.83;1.03;;;;;;;0.30;86.58;100112.91;5009871;28;20214;-82
2023/03/27 03:36:16;;;;;;;4.20;1.00;;;;;;;0.31;85.79;100136.03;5010734;28;20342;-82
2023/03/27 03:38:42;;;;;;;2.67;1.10;;;;;;;0.30;86.61;100144.59;5010653;28;20787;-82
2023/03/27 03:41:08;;;;;;;2.60;1.13;;;;;;;0.22;86.21;100152.97;5010948;28;20649;-82
2023/03/27 03:43:35;;;;;;;5.80;1.07;;;;;;;0.14;86.75;100143.44;5026156;28;20205;-82
2023/03/27 03:46:03;;;;;;;6.43;1.33;;;;;;;0.18;87.53;100136.66;5017985;28;20316;-82
2023/03/27 03:48:29;;;;;;;10.87;1.00;;;;;;;0.18;87.26;100136.66;5011101;28;20207;-82
2023/03/27 03:50:55;;;;;;;4.10;1.63;;;;;;;0.17;87.43;100140.06;5012275;28;20209;-82
2023/03/27 03:53:22;;;;;;;6.10;1.40;;;;;;;0.21;87.28;100149.53;5011483;28;20212;-83
2023/03/27 03:55:50;;;;;;;5.00;0.97;;;;;;;0.21;87.56;100158.94;5012821;28;20212;-82
2023/03/27 03:58:17;;;;;;;4.13;1.27;;;;;;;0.21;87.59;100162.38;5010270;28;20273;-82
2023/03/27 04:00:43;;;;;;;10.47;1.30;;;;;;;0.29;86.67;100165.94;5018805;28;20306;-82
2023/03/27 04:03:13;;;;;;;4.97;1.20;;;;;;;0.24;86.77;100179.53;5027131;28;20209;-82
2023/03/27 04:05:39;;;;;;;3.83;1.07;;;;;;;0.31;86.65;100179.66;5027417;28;20727;-82
2023/03/27 04:08:06;;;;;;;5.67;1.40;;;;;;;0.35;87.12;100178.88;5027315;28;20215;-82
2023/03/27 04:10:33;;;;;;;5.83;1.47;;;;;;;0.45;86.63;100189.31;5008032;28;20205;-80
2023/03/27 04:13:00;;;;;;;7.43;1.60;;;;;;;0.48;86.51;100205.66;5008214;28;20233;-82
2023/03/27 04:15:26;;;;;;;6.17;1.17;;;;;;;0.47;86.10;100210.75;5008759;28;20206;-83
2023/03/27 04:17:53;;;;;;;4.93;1.00;;;;;;;0.41;86.30;100210.66;5014470;28;20207;-82
2023/03/27 04:20:21;;;;;;;5.17;1.10;;;;;;;0.37;86.95;100210.59;5023903;28;20213;-82
2023/03/27 04:22:48;;;;;;;4.53;1.50;;;;;;;0.35;87.76;100196.84;5007464;28;20228;-81
2023/03/27 04:25:17;;;;;;;5.77;1.57;;;;;;;0.35;87.60;100186.59;5007474;28;20243;-82
2023/03/27 04:27:44;;;;;;;3.33;1.37;;;;;;;0.37;88.05;100179.78;5013920;28;20261;-81
2023/03/27 04:30:12;;;;;;;3.97;1.50;;;;;;;0.39;88.97;100169.53;5008808;28;20212;-81
2023/03/27 04:32:39;;;;;;;7.80;1.60;;;;;;;0.28;88.60;100168.47;5008885;28;20228;-81
2023/03/27 04:35:07;;;;;;;8.97;1.43;;;;;;;0.27;89.09;100159.06;5008941;28;20225;-80
2023/03/27 04:37:34;;;;;;;5.47;1.37;;;;;;;0.26;89.50;100155.63;5008300;28;20217;-82
2023/03/27 04:40:03;;;;;;;9.07;1.57;;;;;;;0.29;89.83;100150.53;5008296;28;20578;-82
2023/03/27 04:42:31;;;;;;;5.63;1.50;;;;;;;0.32;89.61;100157.44;5008913;28;20239;-81
2023/03/27 04:44:57;;;;;;;4.47;1.30;;;;;;;0.31;89.73;100155.72;5008102;28;20224;-82
2023/03/27 04:47:24;;;;;;;5.00;1.40;;;;;;;0.39;88.99;100167.81;5008383;28;20205;-81
2023/03/27 04:49:50;;;;;;;4.73;1.37;;;;;;;0.45;89.28;100166.22;5007825;28;20249;-82
2023/03/27 04:52:17;;;;;;;5.13;1.07;;;;;;;0.50;89.39;100165.47;5007679;28;20232;-81
2023/03/27 04:54:45;;;;;;;2.20;0.97;;;;;;;0.54;89.40;100164.69;5025123;28;20205;-81
2023/03/27 04:57:11;;;;;;;6.97;1.40;;;;;;;0.65;89.04;100185.41;5022291;28;20721;-81
2023/03/27 04:59:38;;;;;;;5.00;1.03;;;;;;;0.75;88.24;100194.13;5006657;28;20220;-82
2023/03/27 05:02:05;;;;;;;5.97;1.30;;;;;;;0.81;87.78;100207.06;5007268;28;20226;-82
2023/03/27 05:04:32;;;;;;;3.47;1.53;;;;;;;0.84;87.29;100216.56;5003421;28;20778;-81
2023/03/27 05:07:02;;;;;;;9.60;1.20;;;;;;;0.92;86.94;100233.81;5006938;28;20255;-83
2023/03/27 05:09:28;;;;;;;6.70;1.20;;;;;;;0.82;87.29;100244.78;5015528;28;20293;-83
2023/03/27 05:11:56;;;;;;;3.83;1.33;;;;;;;0.91;86.95;100247.53;4997604;28;20737;-84
2023/03/27 05:14:23;;;;;;;9.27;2.33;;;;;;;0.74;87.36;100265.19;5015743;28;20567;-83
2023/03/27 05:16:51;;;;;;;6.50;1.47;;;;;;;0.69;87.51;100266.81;5016560;28;20246;-83
2023/03/27 05:19:18;;;;;;;4.20;1.20;;;;;;;0.61;87.32;100276.06;5016787;28;20213;-81
2023/03/27 05:21:45;;;;;;;5.63;2.37;;;;;;;0.53;88.76;100269.94;5016721;28;20266;-82
2023/03/27 05:24:11;;;;;;;4.03;1.57;;;;;;;0.51;89.20;100257.06;5015975;28;20209;-81
2023/03/27 05:26:38;;;;;;;4.73;1.40;;;;;;;0.58;88.25;100265.75;5016639;28;20273;-80
2023/03/27 05:29:07;;;;;;;6.10;1.33;;;;;;;0.63;87.79;100268.41;5003296;28;20236;-79
2023/03/27 05:31:34;;;;;;;5.57;1.30;;;;;;;0.69;87.79;100274.50;5005456;28;20224;-81
2023/03/27 05:34:01;;;;;;;5.27;1.63;;;;;;;0.66;88.33;100282.19;5005714;28;20577;-82
2023/03/27 05:36:28;;;;;;;5.37;1.37;;;;;;;0.68;88.20;100288.22;5006222;28;20211;-81
2023/03/27 05:38:56;;;;;;;5.93;1.40;;;;;;;0.68;88.10;100284.78;5007519;28;20201;-82
2023/03/27 05:41:23;;;;;;;2.73;1.10;;;;;;;0.58;88.27;100287.16;5008779;28;20251;-80
2023/03/27 05:43:50;;;;;;;4.70;1.57;;;;;;;0.62;88.75;100280.41;5007578;28;20235;-83
2023/03/27 05:46:18;;;;;;;2.50;1.17;;;;;;;0.53;88.73;100275.94;5007553;28;20255;-83
2023/03/27 05:48:45;;;;;;;5.33;1.10;;;;;;;0.63;89.25;100276.97;5003812;28;20197;-84
2023/03/27 05:51:11;;;;;;;2.27;0.93;;;;;;;0.83;87.68;100277.34;5007182;28;20220;-81
2023/03/27 05:53:38;;;;;;;4.00;1.20;;;;;;;0.75;87.92;100296.88;5008051;28;20211;-83
2023/03/27 05:56:05;;;;;;;5.87;1.40;;;;;;;0.88;87.58;100310.84;5003151;28;20221;-84
2023/03/27 05:58:31;;;;;;;2.43;1.20;;;;;;;0.86;87.79;100317.66;5007016;28;20203;-84
2023/03/27 06:00:59;;;;;;;5.53;1.23;;;;;;;0.86;86.95;100313.38;5006456;28;20234;-85
2023/03/27 06:03:28;;;;;;;6.47;1.17;;;;;;;0.96;87.30;100319.53;5002668;28;20199;-82
2023/03/27 06:05:56;;;;;;;3.93;1.70;;;;;;;0.95;87.63;100328.06;5007313;28;20830;-83
2023/03/27 06:08:22;;;;;;;6.00;1.57;;;;;;;0.92;87.58;100320.34;5006294;28;20206;-81
2023/03/27 06:10:48;;;;;;;6.53;1.50;;;;;;;0.90;88.77;100320.28;5007768;28;20234;-82
2023/03/27 06:13:15;;;;;;;4.60;1.63;;;;;;;0.91;88.18;100324.63;5007484;28;20739;-81
2023/03/27 06:15:42;;;;;;;3.97;1.20;;;;;;;1.10;87.80;100333.50;5004875;28;20219;-83
2023/03/27 06:18:09;;;;;;;7.13;1.50;;;;;;;1.23;87.25;100339.75;5010479;28;20258;-83
2023/03/27 06:20:38;;;;;;;4.03;1.33;;;;;;;1.23;85.63;100364.56;5009613;28;20209;-82
2023/03/27 06:23:06;;;;;;;4.87;1.50;;;;;;;1.38;85.63;100382.84;5009120;28;20226;-81
2023/03/27 06:25:34;;;;;;;3.53;1.30;;;;;;;1.46;84.97;100409.56;5012132;28;20597;-81
2023/03/27 06:28:03;;;;;;;3.40;1.83;;;;;;;1.61;84.13;100426.97;5007867;28;20210;-80
2023/03/27 06:30:29;;;;;;;3.40;1.13;;;;;;;1.71;84.51;100446.88;5012393;28;20227;-81
2023/03/27 06:32:58;;;;;;;6.10;1.30;;;;;;;1.75;83.16;100468.38;5017848;28;20230;-81
2023/03/27 06:35:30;;;;;;;5.30;1.43;;;;;;;1.65;84.12;100492.22;5025922;28;20211;-79
2023/03/27 06:37:59;;;;;;;5.03;1.20;;;;;;;1.77;84.25;100490.72;5004735;28;20267;-82
2023/03/27 06:40:27;;;;;;;3.73;1.20;;;;;;;1.58;84.11;100496.38;5017589;28;20208;-83
2023/03/27 06:42:55;;;;;;;4.03;1.20;;;;;;;1.69;84.26;100494.88;5001226;28;20287;-81
2023/03/27 06:45:23;;;;;;;3.57;1.20;;;;;;;1.83;84.98;100495.09;4999982;28;20259;-80
2023/03/27 06:47:51;;;;;;;4.90;1.33;;;;;;;1.95;83.79;100497.88;4998776;28;20267;-81
2023/03/27 06:50:18;;;;;;;9.40;1.40;;;;;;;1.87;83.84;100522.63;5000430;28;20587;-82
2023/03/27 06:52:45;;;;;;;2.97;1.00;;;;;;;1.85;82.82;100531.19;5006518;28;20253;-80
2023/03/27 06:55:12;;;;;;;2.47;1.20;;;;;;;1.82;82.73;100551.69;5008096;28;20200;-80
2023/03/27 06:57:43;;;;;;;3.40;1.03;;;;;;;1.90;82.80;100547.53;5006358;28;20201;-78
2023/03/27 07:00:17;;;;;;;4.27;1.90;;;;;;;2.03;82.45;100561.53;5011416;28;20205;-82
2023/03/27 07:02:44;;;;;;;6.80;1.77;;;;;;;2.14;82.66;100571.16;5007226;28;20229;-80
2023/03/27 07:05:10;;;;;;;4.13;1.57;;;;;;;2.21;81.89;100594.44;5008728;28;20210;-83
2023/03/27 07:07:37;;;;;;;2.37;1.37;;;;;;;2.38;81.73;100603.34;5006722;28;20223;-83
2023/03/27 07:10:04;;;;;;;6.87;1.80;;;;;;;2.41;81.50;100607.66;5006192;28;20233;-83
2023/03/27 07:12:31;;;;;;;3.63;1.50;;;;;;;2.26;81.45;100631.44;5003819;28;20599;-80
2023/03/27 07:14:58;;;;;;;3.50;1.13;;;;;;;2.38;81.67;100636.84;4981801;28;20743;-81
2023/03/27 07:17:24;;;;;;;3.47;1.30;;;;;;;2.33;81.88;100631.56;5005770;28;20636;-80
2023/03/27 07:19:51;;;;;;;5.83;2.53;;;;;;;2.21;82.13;100641.66;5007864;28;20251;-81
2023/03/27 07:22:18;;;;;;;3.30;1.30;;;;;;;2.17;82.66;100634.72;5007688;28;20232;-80
2023/03/27 07:24:45;;;;;;;5.93;1.57;;;;;;;2.16;82.67;100630.41;5004922;28;20203;-81
2023/03/27 07:27:11;;;;;;;3.70;1.30;;;;;;;2.34;83.15;100614.44;5006739;28;20256;-81
2023/03/27 07:29:39;;;;;;;4.87;1.77;;;;;;;2.39;82.07;100616.22;5006000;28;20261;-81
2023/03/27 07:32:06;;;;;;;4.57;1.73;;;;;;;2.40;82.43;100619.69;5003871;28;20322;-82
2023/03/27 07:34:32;;;;;;;2.63;1.57;;;;;;;2.50;82.87;100619.00;5011378;28;20768;-82
2023/03/27 07:36:59;;;;;;;8.50;1.60;;;;;;;2.67;82.47;100615.81;5006916;28;20225;-81
2023/03/27 07:39:25;;;;;;;6.80;1.63;;;;;;;2.69;82.12;100611.56;5008372;28;20242;-82
2023/03/27 07:41:52;;;;;;;6.47;1.80;;;;;;;2.78;82.57;100616.88;5004132;28;20227;-82
2023/03/27 07:44:18;;;;;;;4.47;1.80;;;;;;;2.89;80.87;100629.91;5004934;28;20241;-81
2023/03/27 07:46:48;;;;;;;5.80;1.67;;;;;;;3.03;80.49;100653.34;5008522;28;20227;-80
2023/03/27 07:49:14;;;;;;;3.63;1.20;;;;;;;3.10;80.55;100668.06;4999471;28;20202;-80
2023/03/27 07:51:40;;;;;;;6.07;1.60;;;;;;;3.04;78.98;100689.47;4999312;28;20231;-82
2023/03/27 07:54:07;;;;;;;5.20;1.33;;;;;;;3.12;79.27;100717.97;5000450;28;20258;-81
2023/03/27 07:56:37;;;;;;;4.90;1.57;;;;;;;3.18;78.30;100738.69;4999918;28;20293;-83
2023/03/27 07:59:03;;;;;;;9.67;3.60;;;;;;;3.22;78.84;100750.78;5000410;28;20339;-84
2023/03/27 08:01:31;;;;;;;4.07;1.53;;;;;;;3.34;78.73;100752.69;5001904;28;20230;-83
2023/03/27 08:03:59;;;;;;;8.17;1.47;;;;;;;3.46;79.71;100755.44;5000784;28;20229;-82
2023/03/27 08:06:25;;;;;;;7.80;1.50;;;;;;;3.40;79.38;100751.94;5000110;28;20230;-82
2023/03/27 08:08:52;;;;;;;8.73;1.60;;;;;;;3.38;78.40;100767.38;5001173;28;20196;-80
2023/03/27 08:11:19;;;;;;;6.70;1.83;;;;;;;3.46;77.13;100783.84;5000624;28;20331;-81
2023/03/27 08:13:45;;;;;;;4.27;1.57;;;;;;;3.56;78.16;100801.19;5004000;28;20215;-82
2023/03/27 08:16:13;;;;;;;4.87;1.33;;;;;;;3.55;77.51;100812.38;5004725;28;20234;-82
2023/03/27 08:18:41;;;;;;;4.27;1.40;;;;;;;3.52;76.33;100824.38;5002620;28;20231;-80
2023/03/27 08:21:10;;;;;;;4.00;1.10;;;;;;;3.55;76.24;100845.94;5005483;28;20219;-82
2023/03/27 08:23:38;;;;;;;6.37;1.40;;;;;;;3.64;76.51;100863.28;5001522;28;20207;-82
2023/03/27 08:26:05;;;;;;;7.70;1.60;;;;;;;3.66;76.30;100869.31;5002866;28;20287;-83
2023/03/27 08:28:34;;;;;;;3.80;1.37;;;;;;;3.76;76.27;100878.09;5002486;28;20204;-80
2023/03/27 08:31:01;;;;;;;6.30;1.70;;;;;;;3.83;75.18;100879.09;5001729;28;20225;-80
2023/03/27 08:33:28;;;;;;;5.00;1.43;;;;;;;3.80;74.29;100907.41;5003220;28;20246;-84
2023/03/27 08:35:56;;;;;;;3.83;1.40;;;;;;;3.83;74.11;100931.59;5019917;28;20203;-81
2023/03/27 08:38:23;;;;;;;4.53;1.53;;;;;;;3.88;74.68;100940.25;5001594;28;20747;-81
2023/03/27 08:40:52;;;;;;;4.43;1.20;;;;;;;3.91;73.29;100942.91;5001917;28;20210;-82
2023/03/27 08:43:22;;;;;;;4.00;1.80;;;;;;;4.04;74.06;100974.09;5001976;28;20204;-81
2023/03/27 08:45:52;;;;;;;4.70;1.70;;;;;;;4.07;74.13;100977.59;5002774;28;20211;-82
2023/03/27 08:48:22;;;;;;;3.70;1.40;;;;;;;4.07;73.05;100971.56;5003085;28;20210;-82
2023/03/27 08:50:54;;;;;;;5.33;1.13;;;;;;;4.13;73.97;100980.28;5006668;28;20214;-83
2023/03/27 08:53:32;;;;;;;3.73;1.40;;;;;;;4.07;73.44;101003.44;5001226;28;20204;-81
2023/03/27 08:56:00;;;;;;;4.13;1.50;;;;;;;4.08;74.74;100999.13;5003514;28;20212;-82
2023/03/27 08:58:26;;;;;;;4.77;1.30;;;;;;;4.21;73.81;100993.31;5004810;28;20569;-81
2023/03/27 09:01:00;;;;;;;4.40;1.63;;;;;;;4.39;73.08;100990.16;5002668;28;20196;-81
2023/03/27 09:03:32;;;;;;;12.33;1.50;;;;;;;4.38;71.74;101025.47;5006970;28;20232;-80
2023/03/27 09:06:04;;;;;;;2.43;1.47;;;;;;;4.49;69.45;101061.81;5007447;28;20212;-82
2023/03/27 09:08:43;;;;;;;2.63;1.60;;;;;;;4.56;68.82;101130.91;5002660;28;20277;-79
2023/03/27 09:11:23;;;;;;;3.00;1.40;;;;;;;4.69;69.72;101160.41;4980449;28;20278;-80
2023/03/27 09:13:51;;;;;;;4.53;1.50;;;;;;;4.76;69.89;101170.00;4979135;28;20273;-80
2023/03/27 09:16:21;;;;;;;2.30;1.13;;;;;;;4.82;69.33;101171.81;4978982;28;20654;-81
2023/03/27 09:18:56;;;;;;;3.53;1.80;;;;;;;4.64;68.49;101185.31;4979933;28;20208;-79
2023/03/27 09:21:31;;;;;;;2.47;0.97;;;;;;;4.72;68.74;101196.66;4979421;28;20281;-80
2023/03/27 09:24:05;;;;;;;4.20;1.57;;;;;;;4.93;68.76;101200.44;4992486;28;20657;-80
2023/03/27 09:26:35;;;;;;;1.23;1.00;;;;;;;4.64;67.87;101206.00;4998180;28;20199;-79
2023/03/27 09:29:05;;;;;;;2.80;1.27;;;;;;;4.76;66.82;101228.63;4997792;28;20215;-80
2023/03/27 09:31:34;;;;;;;5.67;1.80;;;;;;;4.57;65.66;101248.09;4997523;28;20235;-81
2023/03/27 09:34:04;;;;;;;2.93;1.10;;;;;;;4.74;66.52;101285.50;4998158;28;20265;-81
2023/03/27 09:36:31;;;;;;;4.30;1.27;;;;;;;4.52;66.95;101297.16;4996229;28;20266;-82
2023/03/27 09:39:04;;;;;;;3.53;1.20;;;;;;;4.56;66.48;101280.84;4997503;28;20258;-82
2023/03/27 09:41:37;;;;;;;2.20;1.20;;;;;;;4.61;66.34;101293.00;5011974;28;20226;-84
2023/03/27 09:44:09;;;;;;;2.30;2.10;;;;;;;4.78;66.62;101286.44;5018869;28;20223;-84
2023/03/27 09:46:38;;;;;;;2.63;1.20;;;;;;;4.91;66.37;101282.34;5018549;28;20211;-84
2023/03/27 09:49:12;;;;;;;2.73;1.00;;;;;;;4.96;66.05;101307.44;5019412;28;20264;-83
2023/03/27 09:51:41;;;;;;;4.03;1.47;;;;;;;5.19;67.61;101317.31;5014758;28;20235;-81
2023/03/27 09:54:13;;;;;;;2.93;1.27;;;;;;;5.25;67.02;101296.75;5013805;28;20257;-81
2023/03/27 09:56:42;;;;;;;3.43;1.10;;;;;;;5.10;64.98;101302.53;5003103;28;20242;-82
2023/03/27 09:59:19;;;;;;;3.20;1.20;;;;;;;5.22;67.50;101322.56;4998716;28;20206;-81
2023/03/27 10:01:47;;;;;;;1.60;0.93;;;;;;;5.41;64.99;101303.03;5014077;28;20330;-81
2023/03/27 10:04:17;;;;;;;3.07;1.10;;;;;;;5.32;62.43;101319.28;5014054;28;20265;-81
2023/03/27 10:06:46;;;;;;;2.27;1.40;;;;;;;4.82;62.74;101377.88;5015003;28;20283;-80
2023/03/27 10:09:22;;;;;;;1.13;0.67;;;;;;;5.03;62.89;101385.19;5013602;28;20202;-82
2023/03/27 10:11:49;;;;;;;6.93;1.37;;;;;;;4.78;64.29;101428.69;5012656;28;20237;-81
2023/03/27 10:14:19;;;;;;;2.87;0.90;;;;;;;4.38;67.17;101417.50;4994727;28;20211;-81
2023/03/27 10:16:46;;;;;;;7.03;1.53;;;;;;;4.18;68.34;101368.81;4994590;28;20210;-81
2023/03/27 10:19:22;;;;;;;4.13;1.33;;;;;;;4.46;69.41;101302.19;4995688;28;20203;-81
2023/03/27 10:21:49;;;;;;;2.20;1.17;;;;;;;4.79;67.45;101246.78;4994835;28;20735;-81
2023/03/27 10:24:26;;;;;;;5.70;1.63;;;;;;;5.06;66.80;101255.88;4994295;28;20653;-82
2023/03/27 10:26:52;;;;;;;5.10;1.10;;;;;;;5.44;66.85;101253.03;4994828;28;20239;-80
2023/03/27 10:29:26;;;;;;;4.10;1.20;;;;;;;5.41;64.31;101290.09;4995343;28;20238;-86
2023/03/27 10:31:55;;;;;;;2.47;0.93;;;;;;;5.04;60.67;101319.66;4994004;28;20277;-81
2023/03/27 10:34:33;;;;;;;2.30;0.77;;;;;;;5.23;62.34;101376.06;4994679;28;20678;-80
2023/03/27 10:37:02;;;;;;;2.30;0.90;;;;;;;5.20;62.46;101399.31;4996221;28;20230;-83
2023/03/27 10:39:34;;;;;;;1.83;0.83;;;;;;;5.23;60.43;101417.47;4994368;28;20204;-82
2023/03/27 10:42:06;;;;;;;2.43;0.63;;;;;;;5.43;60.77;101451.53;4993771;28;20227;-82
2023/03/27 10:44:34;;;;;;;2.57;0.70;;;;;;;5.69;59.00;101445.91;4995522;28;20222;-83
2023/03/27 10:47:00;;;;;;;3.97;1.70;;;;;;;5.20;61.61;101544.25;5013775;28;20253;-81
2023/03/27 10:49:37;;;;;;;1.00;0.70;;;;;;;4.42;70.10;101547.66;5013156;28;20203;-80
2023/03/27 10:52:14;;;;;;;0.80;0.60;;;;;;;3.40;77.31;101360.91;5015034;28;20226;-80
2023/03/27 10:54:46;;;;;;;2.07;0.90;;;;;;;2.64;85.34;101062.50;5015170;28;20212;-80
2023/03/27 10:57:16;;;;;;;3.20;1.00;;;;;;;2.58;87.01;100821.00;5004140;28;20203;-81
2023/03/27 10:59:49;;;;;;;1.53;0.93;;;;;;;2.53;87.38;100688.59;4995580;28;20209;-82
2023/03/27 11:02:19;;;;;;;1.43;1.07;;;;;;;2.78;87.34;100602.25;4996140;28;20233;-80
2023/03/27 11:04:52;;;;;;;2.30;0.90;;;;;;;3.41;87.45;100545.53;4993946;28;20207;-80
2023/03/27 11:07:25;;;;;;;1.60;1.20;;;;;;;3.97;82.10;100555.59;4995636;28;20254;-81
2023/03/27 11:10:03;;;;;;;3.67;1.17;;;;;;;4.45;79.36;100623.22;4994907;28;20212;-81
2023/03/27 11:12:33;;;;;;;2.63;1.13;;;;;;;4.93;78.49;100670.16;4995797;28;20239;-81
2023/03/27 11:15:06;;;;;;;3.50;1.30;;;;;;;5.03;75.78;100728.00;4995650;28;20242;-80
2023/03/27 11:17:38;;;;;;;2.67;0.90;;;;;;;4.96;74.17;100786.59;4995564;28;20254;-82
2023/03/27 11:20:15;;;;;;;2.23;1.17;;;;;;;4.99;75.14;100859.03;5001590;28;20233;-80
2023/03/27 11:22:45;;;;;;;1.00;0.77;;;;;;;4.19;77.15;100889.09;5013920;28;20763;-79
2023/03/27 11:25:20;;;;;;;1.70;0.90;;;;;;;3.95;79.16;100843.09;5013560;28;20210;-82
2023/03/27 11:27:53;;;;;;;0.60;0.60;;;;;;;3.97;77.85;100826.78;5005705;28;20276;-82
2023/03/27 11:30:38;;;;;;;0.70;0.70;;;;;;;4.24;78.10;100837.47;4976540;28;20227;-83
2023/03/27 11:33:41;;;;;;;0.97;0.70;;;;;;;4.19;76.69;100878.75;4975139;28;20258;-82
2023/03/27 11:36:22;;;;;;;0.50;0.50;;;;;;;4.35;75.23;100923.75;4974356;28;20597;-83
2023/03/27 11:41:34;;;;;;;2.17;0.90;;;;;;;4.24;80.86;100923.63;4995462;28;20310;-81
2023/03/27 11:44:00;;;;;;;1.53;1.00;;;;;;;3.65;84.12;100846.06;4996896;28;20580;-82
2023/03/27 11:46:44;;;;;;;0.90;0.90;;;;;;;3.31;87.10;100735.47;4999462;28;20239;-79
2023/03/27 11:49:27;;;;;;;0.70;0.70;;;;;;;3.37;86.38;100681.38;4996703;28;20222;-81